Terminal Aerodrome Forecast
Issued by NWS

Home | Current Version | Previous Version | Text Only | Print | Product List | Glossary Off
Versions: 1 2 3 4 5 6 7 8 9 10 11 12 13 14 15 16 17

000
FTUS43 KGRB 292334
TAFCWA
TAF
KCWA 292334Z 3000/3024 28009KT P6SM -SHRA BKN035 OVC090
      TEMPO 3000/3001 3SM TSRA BKN020CB
     FM300100 35009KT 4SM RA BR BKN012 OVC030
     FM300300 36008KT 4SM RA BR OVC006
     FM301000 36010G16KT 6SM -SHRA SCT008 OVC014
     FM301400 01011G16KT P6SM OVC015
     FM301800 36010G17KT P6SM SCT025 BKN100=

USA.gov is the U.S. government's official web portal to all federal, state and local government web resources and services.